Time;durP1;ratioP1;P1;durP2;ratioP2;P2;SDS_P1;SDS_P2;PMS_P1;PMS_P2;Temp;Humidity;BMP_temperature;BMP_pressure;BME280_temperature;BME280_humidity;BME280_pressure;Samples;Min_cycle;Max_cycle;Signal;HPM_P1;HPM_P2
2022/01/13 00:02:04;;;;;;;3.40;2.40;;;14.80;99.90;;;;;;5082501;28;20486;-71
2022/01/13 00:04:35;;;;;;;4.77;2.43;;;14.70;99.90;;;;;;5089291;28;20473;-70
2022/01/13 00:07:06;;;;;;;3.17;2.90;;;14.70;99.90;;;;;;5088304;28;20464;-71
2022/01/13 00:09:39;;;;;;;3.37;2.70;;;14.60;99.90;;;;;;5087765;28;20531;-72
2022/01/13 00:12:12;;;;;;;5.30;2.80;;;14.50;99.90;;;;;;5093151;28;20461;-71
2022/01/13 00:14:57;;;;;;;3.13;2.80;;;14.50;99.90;;;;;;5079763;28;20484;-70
2022/01/13 00:17:46;;;;;;;3.03;2.70;;;14.30;99.90;;;;;;5076294;28;20482;-71
2022/01/13 00:25:58;;;;;;;3.70;2.50;;;14.00;99.90;;;;;;5068875;28;21004;-71
2022/01/13 00:28:29;;;;;;;5.10;2.80;;;14.00;99.90;;;;;;5083375;28;21030;-72
2022/01/13 00:31:04;;;;;;;3.70;2.97;;;13.80;99.90;;;;;;5086797;28;20538;-71
2022/01/13 00:33:36;;;;;;;4.13;2.63;;;13.70;99.90;;;;;;5084390;28;20458;-73
2022/01/13 00:36:07;;;;;;;5.37;2.60;;;13.60;99.90;;;;;;5086718;28;20458;-71
2022/01/13 00:38:37;;;;;;;2.93;2.23;;;13.50;99.90;;;;;;5084785;28;20454;-70
2022/01/13 00:41:10;;;;;;;5.50;3.20;;;13.40;99.90;;;;;;5084588;28;20945;-71
2022/01/13 00:43:42;;;;;;;4.87;2.50;;;13.20;99.90;;;;;;5073577;28;20461;-70
2022/01/13 00:46:19;;;;;;;8.80;2.80;;;13.00;99.90;;;;;;5083890;28;20479;-71
2022/01/13 00:49:03;;;;;;;4.10;2.47;;;12.80;99.90;;;;;;5081173;28;20513;-74
2022/01/13 00:51:35;;;;;;;2.70;2.37;;;12.70;99.90;;;;;;5086185;28;20462;-73
2022/01/13 00:54:08;;;;;;;3.50;2.27;;;12.70;99.90;;;;;;5087193;28;20923;-69
2022/01/13 00:56:41;;;;;;;2.90;2.13;;;12.60;99.90;;;;;;5078951;28;21039;-69
2022/01/13 00:59:14;;;;;;;2.30;2.10;;;12.60;99.90;;;;;;5088542;28;20476;-69
2022/01/13 01:01:47;;;;;;;2.70;2.20;;;12.60;99.90;;;;;;5078547;28;20497;-69
2022/01/13 01:30:12;;;;;;;3.43;2.10;;;11.70;99.90;;;;;;5054595;28;20488;-75
2022/01/13 01:44:01;;;;;;;3.30;2.83;;;11.00;99.90;;;;;;5070732;28;20458;-73
2022/01/13 01:46:38;;;;;;;4.77;3.30;;;10.90;99.90;;;;;;5066496;28;20951;-72
2022/01/13 01:49:23;;;;;;;3.80;3.03;;;10.90;99.90;;;;;;5070043;28;20471;-74
2022/01/13 01:52:02;;;;;;;3.90;2.90;;;10.90;99.90;;;;;;5062239;28;20550;-70
2022/01/13 01:54:34;;;;;;;3.70;3.40;;;10.80;99.90;;;;;;5069476;28;20542;-72
2022/01/13 02:01:07;;;;;;;5.03;2.70;;;10.70;99.90;;;;;;5061918;28;20968;-75
2022/01/13 02:04:34;;;;;;;4.13;3.00;;;10.70;99.90;;;;;;5066659;28;20463;-73
2022/01/13 02:07:12;;;;;;;3.30;2.20;;;10.50;99.90;;;;;;5066569;28;20459;-74
2022/01/13 02:09:50;;;;;;;4.87;3.00;;;10.30;99.90;;;;;;5069053;28;20607;-69
2022/01/13 02:15:46;;;;;;;3.40;2.70;;;10.10;99.90;;;;;;5062424;28;20829;-70
2022/01/13 02:18:19;;;;;;;3.50;2.73;;;10.00;99.90;;;;;;5067126;28;20471;-69
2022/01/13 02:21:04;;;;;;;3.10;2.80;;;10.00;99.90;;;;;;5071443;28;20459;-74
2022/01/13 02:23:40;;;;;;;3.83;2.70;;;10.10;99.90;;;;;;5078152;28;20505;-71
2022/01/13 02:26:12;;;;;;;3.93;2.60;;;10.00;99.90;;;;;;5092199;28;21029;-72
2022/01/13 02:28:44;;;;;;;3.20;2.90;;;10.00;99.90;;;;;;5087722;28;20542;-68
2022/01/13 02:31:15;;;;;;;3.78;2.97;;;9.90;99.90;;;;;;5079971;28;20458;-69
2022/01/13 02:33:46;;;;;;;4.10;3.27;;;9.80;99.90;;;;;;5091166;28;20211;-68
2022/01/13 02:36:20;;;;;;;3.70;2.80;;;9.70;99.90;;;;;;5105443;28;21073;-67
2022/01/13 02:38:53;;;;;;;3.85;2.97;;;9.70;99.90;;;;;;5091751;28;20827;-69
2022/01/13 02:41:24;;;;;;;3.35;2.50;;;9.60;99.90;;;;;;5079292;28;20343;-70
2022/01/13 02:43:58;;;;;;;3.75;3.17;;;9.60;99.90;;;;;;5084529;28;20223;-69
2022/01/13 02:46:33;;;;;;;4.75;3.38;;;9.50;99.90;;;;;;5090301;28;20231;-68
2022/01/13 02:49:06;;;;;;;5.53;3.80;;;9.50;99.90;;;;;;5082848;28;20211;-70
2022/01/13 02:51:40;;;;;;;5.30;3.55;;;9.40;99.90;;;;;;5090503;28;20543;-70
2022/01/13 02:54:11;;;;;;;6.38;3.97;;;9.40;99.90;;;;;;5088203;28;20208;-68
2022/01/13 02:56:44;;;;;;;4.38;3.22;;;9.30;99.90;;;;;;5087483;28;20212;-70
2022/01/13 02:59:15;;;;;;;4.27;3.70;;;9.30;99.90;;;;;;5081978;28;20224;-70
2022/01/13 03:01:46;;;;;;;6.65;3.85;;;9.20;99.90;;;;;;5087045;28;20474;-70
2022/01/13 03:04:20;;;;;;;6.20;4.50;;;9.20;99.90;;;;;;5083086;28;20299;-70
2022/01/13 03:06:52;;;;;;;3.80;3.50;;;9.10;99.90;;;;;;5090411;28;20325;-69
2022/01/13 03:09:23;;;;;;;9.65;5.20;;;9.20;99.90;;;;;;5091801;28;20220;-69
2022/01/13 03:11:54;;;;;;;4.57;4.10;;;9.30;99.90;;;;;;5086591;28;20214;-71
2022/01/13 03:14:25;;;;;;;7.25;4.40;;;9.40;99.90;;;;;;5084663;28;20215;-72
2022/01/13 03:16:56;;;;;;;5.43;4.37;;;9.30;99.90;;;;;;5086416;28;20878;-69
2022/01/13 03:19:27;;;;;;;7.20;4.18;;;9.40;99.90;;;;;;5088003;28;20459;-70
2022/01/13 03:22:00;;;;;;;4.63;4.20;;;9.40;99.90;;;;;;5086683;28;20254;-71
2022/01/13 03:24:31;;;;;;;5.82;4.88;;;9.30;99.90;;;;;;5089442;28;20208;-69
2022/01/13 03:27:03;;;;;;;4.72;4.32;;;9.20;99.90;;;;;;5086243;28;20236;-70
2022/01/13 03:29:34;;;;;;;7.03;5.43;;;9.20;99.90;;;;;;5081507;28;20228;-74
2022/01/13 03:32:05;;;;;;;4.20;3.80;;;9.10;99.90;;;;;;5083535;28;20204;-70
2022/01/13 03:34:39;;;;;;;7.18;4.28;;;9.10;99.90;;;;;;5089959;28;20693;-70
2022/01/13 03:37:12;;;;;;;7.32;4.63;;;9.20;99.90;;;;;;5090455;28;20273;-69
2022/01/13 03:39:43;;;;;;;4.63;4.22;;;9.10;99.90;;;;;;5084822;28;20223;-69
2022/01/13 03:42:14;;;;;;;6.50;4.05;;;9.00;99.90;;;;;;5074437;28;20232;-69
2022/01/13 03:44:45;;;;;;;8.00;5.13;;;8.90;99.90;;;;;;5074083;28;20300;-69
2022/01/13 03:47:17;;;;;;;5.60;4.70;;;8.90;99.90;;;;;;5076462;28;20754;-71
2022/01/13 03:54:16;;;;;;;5.35;4.70;;;8.70;99.90;;;;;;5077932;28;20220;-73
2022/01/13 03:57:22;;;;;;;5.80;4.90;;;8.70;99.90;;;;;;5089031;28;20239;-70
2022/01/13 04:00:49;;;;;;;8.10;5.10;;;8.60;99.90;;;;;;5068480;28;20737;-71
2022/01/13 04:03:23;;;;;;;6.20;5.50;;;8.40;99.90;;;;;;5020637;28;20234;-72
2022/01/13 04:06:09;;;;;;;6.22;5.20;;;8.50;99.90;;;;;;5019876;28;20468;-70
2022/01/13 04:08:40;;;;;;;7.60;5.65;;;8.40;99.90;;;;;;5062085;28;20257;-71
2022/01/13 04:11:20;;;;;;;8.15;6.10;;;8.30;99.90;;;;;;5084228;28;20302;-69
2022/01/13 04:13:56;;;;;;;15.68;9.75;;;8.30;99.90;;;;;;5083560;28;20209;-72
2022/01/13 04:16:28;;;;;;;15.35;12.07;;;8.30;99.90;;;;;;5087131;28;20230;-70
2022/01/13 04:19:04;;;;;;;13.13;11.82;;;8.30;99.90;;;;;;5086917;28;20265;-71
2022/01/13 04:21:36;;;;;;;13.40;12.00;;;8.30;99.90;;;;;;5081719;28;20299;-70
2022/01/13 04:24:11;;;;;;;12.40;11.10;;;8.30;99.90;;;;;;5085794;28;20312;-70
2022/01/13 04:26:44;;;;;;;13.73;11.80;;;8.20;99.90;;;;;;5088879;28;20211;-71
2022/01/13 04:29:27;;;;;;;14.25;11.68;;;8.00;99.90;;;;;;5086188;28;20223;-69
2022/01/13 04:31:58;;;;;;;13.43;12.02;;;7.90;99.90;;;;;;5086728;28;20216;-69
2022/01/13 04:34:30;;;;;;;14.38;11.70;;;7.90;99.90;;;;;;5085640;28;20213;-70
2022/01/13 04:37:02;;;;;;;12.68;11.35;;;7.90;99.90;;;;;;5092469;28;20211;-70
2022/01/13 04:39:33;;;;;;;12.77;11.48;;;7.90;99.90;;;;;;5085141;28;20790;-70
2022/01/13 04:42:04;;;;;;;13.73;11.30;;;7.90;99.90;;;;;;5080883;28;20234;-69
2022/01/13 04:44:35;;;;;;;14.48;11.38;;;7.90;99.90;;;;;;5087542;28;20212;-70
2022/01/13 04:47:07;;;;;;;12.90;11.60;;;7.80;99.90;;;;;;5087319;28;20208;-70
2022/01/13 04:49:40;;;;;;;16.15;11.50;;;7.80;99.90;;;;;;5088687;28;20315;-70
2022/01/13 04:52:11;;;;;;;12.60;11.30;;;7.80;99.90;;;;;;5087257;28;20629;-69
2022/01/13 04:54:44;;;;;;;13.85;12.43;;;7.80;99.90;;;;;;5082660;28;20209;-69
2022/01/13 04:57:17;;;;;;;18.17;12.15;;;7.70;99.90;;;;;;5087178;28;20209;-69
2022/01/13 04:59:48;;;;;;;909.47;183.75;;;7.80;99.90;;;;;;5089404;28;20247;-71
2022/01/13 05:02:19;;;;;;;17.40;13.05;;;7.70;99.90;;;;;;5089940;27;20226;-69
2022/01/13 05:04:52;;;;;;;13.48;12.13;;;7.60;99.90;;;;;;5087559;28;20234;-70
2022/01/13 05:07:23;;;;;;;14.07;12.68;;;7.60;99.90;;;;;;5087483;28;20362;-70
2022/01/13 05:09:54;;;;;;;16.25;14.52;;;7.60;99.90;;;;;;5081528;28;20228;-70
2022/01/13 05:12:30;;;;;;;16.55;14.23;;;7.50;99.90;;;;;;5087719;28;20258;-70
2022/01/13 05:15:04;;;;;;;20.38;15.73;;;7.50;99.90;;;;;;5087451;28;20215;-70
2022/01/13 05:20:28;;;;;;;15.45;13.60;;;7.40;99.90;;;;;;5088812;28;20622;-69
2022/01/13 05:22:59;;;;;;;14.38;12.88;;;7.40;99.90;;;;;;5088921;28;20322;-69
2022/01/13 05:25:30;;;;;;;13.98;12.55;;;7.30;99.90;;;;;;5086794;28;20291;-70
2022/01/13 05:28:01;;;;;;;12.55;11.15;;;7.10;99.90;;;;;;5089170;28;20317;-71
2022/01/13 05:30:32;;;;;;;13.48;11.88;;;7.20;99.90;;;;;;5082809;28;20290;-70
2022/01/13 05:33:02;;;;;;;13.38;12.00;;;7.20;99.90;;;;;;5089332;28;20212;-71
2022/01/13 05:35:36;;;;;;;19.10;11.43;;;7.20;99.90;;;;;;5086350;28;20303;-69
2022/01/13 05:38:09;;;;;;;11.35;9.85;;;7.10;99.90;;;;;;5093327;28;20212;-69
2022/01/13 05:40:40;;;;;;;12.05;10.85;;;7.10;99.90;;;;;;5080977;28;20220;-69
2022/01/13 05:43:11;;;;;;;11.93;10.30;;;7.00;99.90;;;;;;5076797;28;20239;-69
2022/01/13 05:45:42;;;;;;;12.98;11.60;;;7.10;99.90;;;;;;5086910;28;20208;-69
2022/01/13 05:48:13;;;;;;;11.27;9.80;;;7.10;99.90;;;;;;5084982;28;20300;-69
2022/01/13 05:50:46;;;;;;;11.88;10.63;;;7.00;99.90;;;;;;5085987;28;20208;-69
2022/01/13 05:53:17;;;;;;;11.60;10.38;;;7.00;99.90;;;;;;5091312;28;20207;-69
2022/01/13 05:55:47;;;;;;;9.57;8.68;;;6.90;99.90;;;;;;5082661;28;20678;-70
2022/01/13 05:58:18;;;;;;;7.05;6.32;;;6.90;99.90;;;;;;5088452;28;20214;-69
2022/01/13 06:00:49;;;;;;;6.00;5.20;;;7.00;99.90;;;;;;5080108;28;20215;-70
2022/01/13 06:03:20;;;;;;;5.75;4.95;;;7.00;99.90;;;;;;5078837;28;20260;-67
2022/01/13 06:05:52;;;;;;;6.47;5.82;;;7.10;99.90;;;;;;5076919;28;20240;-67
2022/01/13 06:08:23;;;;;;;7.65;5.97;;;7.20;99.90;;;;;;5080310;28;20216;-67
2022/01/13 06:10:54;;;;;;;9.25;6.10;;;7.10;99.90;;;;;;5080691;28;20279;-69
2022/01/13 06:13:25;;;;;;;6.20;4.50;;;7.20;99.90;;;;;;5079381;28;20209;-69
2022/01/13 06:15:56;;;;;;;5.10;4.47;;;7.10;99.90;;;;;;5076541;28;20220;-69
2022/01/13 06:18:28;;;;;;;8.48;4.60;;;7.20;99.90;;;;;;5080016;28;20209;-69
2022/01/13 06:21:01;;;;;;;6.95;5.13;;;7.30;99.90;;;;;;5081747;28;20216;-68
2022/01/13 06:23:33;;;;;;;5.68;4.15;;;7.40;99.90;;;;;;5076370;28;20233;-68
2022/01/13 06:26:06;;;;;;;4.47;3.80;;;7.40;99.90;;;;;;5088992;28;20326;-68
2022/01/13 06:28:37;;;;;;;5.68;4.05;;;7.40;99.90;;;;;;5090858;28;20212;-68
2022/01/13 06:31:08;;;;;;;4.07;3.67;;;7.40;99.90;;;;;;5082560;28;20212;-68
2022/01/13 06:33:39;;;;;;;4.13;3.72;;;7.40;99.90;;;;;;5080557;28;20209;-67
2022/01/13 06:36:12;;;;;;;4.43;4.05;;;7.50;99.90;;;;;;5081268;28;20212;-68
2022/01/13 06:38:48;;;;;;;5.75;4.70;;;7.50;99.90;;;;;;5084823;28;20236;-68
2022/01/13 06:41:20;;;;;;;5.32;4.18;;;7.40;99.90;;;;;;5080461;28;20269;-68
2022/01/13 06:43:51;;;;;;;4.90;4.50;;;7.30;99.90;;;;;;5086215;28;20224;-67
2022/01/13 06:46:24;;;;;;;5.72;4.43;;;7.30;99.90;;;;;;5084833;28;20288;-67
2022/01/13 06:48:55;;;;;;;6.03;4.68;;;7.20;99.90;;;;;;5074543;28;20216;-67
2022/01/13 06:51:27;;;;;;;5.80;4.50;;;7.10;99.90;;;;;;5080385;28;20219;-68
2022/01/13 06:53:58;;;;;;;5.55;4.72;;;7.10;99.90;;;;;;5085642;28;20662;-67
2022/01/13 06:56:29;;;;;;;6.47;4.53;;;7.00;99.90;;;;;;5088439;28;20255;-67
2022/01/13 06:59:05;;;;;;;5.03;4.40;;;7.10;99.90;;;;;;5084066;28;20217;-67
2022/01/13 07:01:35;;;;;;;6.03;5.22;;;7.10;99.90;;;;;;5078495;28;20208;-68
2022/01/13 07:04:08;;;;;;;7.13;4.75;;;7.10;99.90;;;;;;5079681;28;20716;-68
2022/01/13 07:06:42;;;;;;;5.95;4.65;;;7.00;99.90;;;;;;5085778;28;20708;-67
2022/01/13 07:09:14;;;;;;;6.45;4.45;;;7.00;99.90;;;;;;5087698;28;20220;-67
2022/01/13 07:11:46;;;;;;;5.65;4.57;;;7.00;99.90;;;;;;5089106;28;20223;-68
2022/01/13 07:14:17;;;;;;;6.40;5.55;;;7.00;99.90;;;;;;5083042;28;20670;-67
2022/01/13 07:16:48;;;;;;;5.50;4.10;;;6.90;99.90;;;;;;5088886;28;20242;-68
2022/01/13 07:19:20;;;;;;;4.95;4.47;;;6.90;99.90;;;;;;5085391;28;20213;-67
2022/01/13 07:21:52;;;;;;;6.90;5.07;;;6.80;99.90;;;;;;5077082;28;20221;-68
2022/01/13 07:24:23;;;;;;;5.13;4.60;;;6.80;99.90;;;;;;5083235;28;20963;-68
2022/01/13 07:26:54;;;;;;;5.70;4.65;;;6.90;99.90;;;;;;5080505;28;20213;-68
2022/01/13 07:29:25;;;;;;;4.60;4.20;;;6.80;99.90;;;;;;5081523;28;20213;-67
2022/01/13 07:31:56;;;;;;;4.63;4.22;;;6.70;99.90;;;;;;5081051;28;20246;-67
2022/01/13 07:34:27;;;;;;;6.60;4.32;;;6.70;99.90;;;;;;5088324;28;20216;-68
2022/01/13 07:36:59;;;;;;;5.28;4.85;;;6.60;99.90;;;;;;5089131;28;20235;-80
2022/01/13 07:39:30;;;;;;;5.38;4.72;;;6.60;99.90;;;;;;5083745;28;20216;-78
2022/01/13 07:42:01;;;;;;;4.80;4.20;;;6.50;99.90;;;;;;5082694;28;20212;-73
2022/01/13 07:44:32;;;;;;;5.03;4.53;;;6.60;99.90;;;;;;5090091;28;20254;-73
2022/01/13 07:47:03;;;;;;;5.97;4.32;;;6.50;99.90;;;;;;5086643;28;20212;-74
2022/01/13 07:49:34;;;;;;;4.10;3.80;;;6.50;99.90;;;;;;5088512;28;20209;-73
2022/01/13 07:52:07;;;;;;;7.35;4.30;;;6.50;99.90;;;;;;5085947;28;20220;-73
2022/01/13 07:54:38;;;;;;;4.43;4.00;;;6.60;99.90;;;;;;5079612;28;20208;-73
2022/01/13 07:57:09;;;;;;;4.80;4.40;;;6.70;99.90;;;;;;5078771;28;20211;-74
2022/01/13 07:59:40;;;;;;;4.53;4.10;;;6.70;99.90;;;;;;5083800;28;20223;-74
2022/01/13 08:02:11;;;;;;;5.30;4.00;;;6.80;99.90;;;;;;5089571;28;20644;-74
2022/01/13 08:04:42;;;;;;;4.93;4.03;;;6.80;99.90;;;;;;5082250;28;20224;-75
2022/01/13 08:07:15;;;;;;;4.13;3.83;;;6.90;99.90;;;;;;5083921;28;20222;-73
2022/01/13 08:09:45;;;;;;;4.22;3.88;;;7.00;99.90;;;;;;5073655;28;20214;-73
2022/01/13 08:12:17;;;;;;;4.85;4.00;;;7.10;99.90;;;;;;5089580;28;20285;-73
2022/01/13 08:14:48;;;;;;;4.60;4.13;;;7.30;99.90;;;;;;5089502;28;20209;-74
2022/01/13 08:19:45;;;;;;;3.85;3.42;;;7.50;99.90;;;;;;5089406;28;20597;-75
2022/01/13 08:20:18;;;;;;;4.82;4.03;;;7.60;99.90;;;;;;5092127;28;20216;-74
2022/01/13 08:22:51;;;;;;;4.82;4.35;;;7.60;99.90;;;;;;5090455;28;20325;-74
2022/01/13 08:25:22;;;;;;;4.13;3.55;;;7.50;99.90;;;;;;5090003;28;20228;-73
2022/01/13 08:27:54;;;;;;;5.43;4.90;;;7.50;99.90;;;;;;5089624;28;20211;-74
2022/01/13 08:30:25;;;;;;;4.78;4.00;;;7.50;99.90;;;;;;5080028;28;20310;-73
2022/01/13 08:32:56;;;;;;;4.60;4.18;;;7.60;99.90;;;;;;5081220;28;20218;-74
2022/01/13 08:35:27;;;;;;;6.70;4.63;;;7.50;99.90;;;;;;5088420;28;20234;-74
2022/01/13 08:38:06;;;;;;;4.25;3.85;;;7.50;99.90;;;;;;5075430;28;20635;-74
2022/01/13 08:40:36;;;;;;;4.72;4.18;;;7.50;99.90;;;;;;5089405;28;20218;-73
2022/01/13 08:43:07;;;;;;;5.95;4.20;;;7.60;99.90;;;;;;5089250;28;20300;-74
2022/01/13 08:45:38;;;;;;;4.55;4.15;;;7.70;99.90;;;;;;5088612;28;20690;-73
2022/01/13 08:48:09;;;;;;;4.70;3.85;;;7.70;99.90;;;;;;5087949;28;20219;-74
2022/01/13 08:50:40;;;;;;;4.20;3.80;;;7.70;99.90;;;;;;5081441;28;20212;-74
2022/01/13 08:53:13;;;;;;;5.57;4.25;;;7.80;99.90;;;;;;5089523;28;20204;-75
2022/01/13 08:55:44;;;;;;;4.63;4.22;;;7.90;99.90;;;;;;5077860;28;20210;-76
2022/01/13 08:58:14;;;;;;;3.80;3.47;;;8.00;99.90;;;;;;5089111;28;20308;-75
2022/01/13 09:00:46;;;;;;;4.20;3.80;;;8.00;99.90;;;;;;5088614;28;20216;-76
2022/01/13 12:34:52;;;;;;;7.15;4.63;;;8.50;99.90;;;;;;4980816;28;20232;-72
2022/01/13 12:37:26;;;;;;;5.25;4.40;;;8.50;99.90;;;;;;5046315;28;20725;-72
2022/01/13 12:43:36;;;;;;;4.65;4.18;;;8.70;99.90;;;;;;5066269;28;20231;-73
2022/01/13 12:46:22;;;;;;;5.55;3.60;;;8.60;99.90;;;;;;5065311;28;20705;-73
2022/01/13 12:49:08;;;;;;;5.03;3.60;;;8.60;99.90;;;;;;5054608;28;20559;-72
2022/01/13 13:16:49;;;;;;;4.50;3.42;;;9.00;99.90;;;;;;5057465;28;20231;-72
2022/01/13 13:19:29;;;;;;;3.25;2.95;;;9.00;99.90;;;;;;5060390;28;20245;-72
2022/01/13 15:58:51;;;;;;;1.00;1.00;;;10.20;99.90;;;;;;5019733;28;20592;-75
2022/01/13 16:01:22;;;;;;;0.87;0.77;;;10.20;99.90;;;;;;5016179;28;20461;-78
2022/01/13 16:03:55;;;;;;;0.80;0.80;;;10.30;99.90;;;;;;5017627;28;20469;-69
2022/01/13 16:06:26;;;;;;;2.10;0.63;;;10.30;99.90;;;;;;5018432;28;20584;-74
2022/01/13 16:08:57;;;;;;;2.30;1.00;;;10.30;99.90;;;;;;5028545;28;20991;-74
2022/01/13 16:11:30;;;;;;;0.90;0.80;;;10.40;99.90;;;;;;5015060;28;20538;-74
2022/01/13 16:14:03;;;;;;;2.60;0.60;;;10.40;99.90;;;;;;5014331;28;20521;-74
2022/01/13 16:16:34;;;;;;;2.60;0.50;;;10.50;99.90;;;;;;5023758;28;20803;-80
2022/01/13 16:19:05;;;;;;;1.23;0.83;;;10.50;99.90;;;;;;5022374;28;20465;-81
2022/01/13 16:21:36;;;;;;;0.67;0.40;;;10.50;99.90;;;;;;5019486;28;20818;-83
2022/01/13 16:24:08;;;;;;;0.70;0.50;;;10.50;99.90;;;;;;5020666;28;20952;-80
2022/01/13 16:26:41;;;;;;;3.67;0.80;;;10.50;99.90;;;;;;5028206;28;20480;-77
2022/01/13 16:29:53;;;;;;;2.83;0.73;;;10.60;99.90;;;;;;5019642;28;20557;-74
2022/01/13 16:32:36;;;;;;;0.83;0.67;;;10.60;99.90;;;;;;5018675;28;20461;-77
2022/01/13 16:35:08;;;;;;;0.30;0.30;;;10.70;99.90;;;;;;5025611;28;20461;-79
2022/01/13 16:37:41;;;;;;;2.00;0.70;;;10.80;99.90;;;;;;5026716;28;20798;-74
2022/01/13 16:40:14;;;;;;;1.47;0.43;;;10.80;99.90;;;;;;5015236;28;20920;-76
2022/01/13 16:42:48;;;;;;;0.73;0.50;;;10.80;99.90;;;;;;5021739;28;20461;-74
2022/01/13 16:45:22;;;;;;;1.00;0.53;;;10.90;99.90;;;;;;5019817;28;20460;-80
2022/01/13 16:47:54;;;;;;;1.17;0.57;;;10.90;99.90;;;;;;5021680;28;20487;-78
2022/01/13 16:50:27;;;;;;;2.40;0.50;;;10.90;99.90;;;;;;5015836;28;21038;-77
2022/01/13 16:52:59;;;;;;;1.00;0.40;;;10.90;99.90;;;;;;5024506;28;20651;-79
2022/01/13 16:55:30;;;;;;;1.20;0.70;;;10.90;99.90;;;;;;5019707;28;20971;-76
2022/01/13 16:58:01;;;;;;;1.13;0.50;;;10.90;99.90;;;;;;5018734;28;21034;-77
2022/01/13 17:00:37;;;;;;;1.37;0.60;;;10.90;99.90;;;;;;5010243;28;20211;-78
2022/01/13 17:03:13;;;;;;;1.73;0.53;;;10.80;99.90;;;;;;5019067;28;20465;-75
2022/01/13 17:05:46;;;;;;;1.23;0.40;;;10.80;99.90;;;;;;5020415;28;20833;-79
2022/01/13 17:08:23;;;;;;;0.50;0.50;;;10.80;99.90;;;;;;5016735;28;20460;-76
2022/01/13 17:10:54;;;;;;;1.87;0.53;;;10.70;99.90;;;;;;5018853;28;20465;-80
2022/01/13 17:13:25;;;;;;;2.03;0.50;;;10.60;99.90;;;;;;5023360;28;20468;-79
2022/01/13 17:15:57;;;;;;;1.63;0.73;;;10.60;99.90;;;;;;5019627;28;20466;-74
2022/01/13 17:18:28;;;;;;;0.40;0.40;;;10.50;99.90;;;;;;5008659;28;20579;-78
2022/01/13 17:21:02;;;;;;;1.87;0.60;;;10.40;99.90;;;;;;5015953;28;20530;-75
2022/01/13 17:23:33;;;;;;;0.87;0.73;;;10.50;99.90;;;;;;5024828;28;20459;-75
2022/01/13 17:26:03;;;;;;;0.65;0.50;;;10.50;99.90;;;;;;5015349;28;20481;-73
2022/01/13 17:28:36;;;;;;;1.50;0.70;;;10.40;99.90;;;;;;5025434;28;20219;-78
2022/01/13 17:31:09;;;;;;;2.60;1.00;;;10.40;99.90;;;;;;5017866;28;20801;-75
2022/01/13 17:33:40;;;;;;;2.47;0.80;;;10.40;99.90;;;;;;5022435;28;20508;-77
2022/01/13 17:36:11;;;;;;;1.70;0.60;;;10.40;99.90;;;;;;5015279;28;20461;-79
2022/01/13 17:38:42;;;;;;;0.90;0.90;;;10.40;99.90;;;;;;5018498;28;20504;-78
2022/01/13 17:41:13;;;;;;;0.97;0.77;;;10.40;99.90;;;;;;5021610;28;20834;-80
2022/01/13 17:43:44;;;;;;;2.77;0.93;;;10.40;99.90;;;;;;5018134;28;20942;-76
2022/01/13 17:46:59;;;;;;;0.83;0.77;;;10.40;99.90;;;;;;5009325;28;20553;-76
2022/01/13 17:50:06;;;;;;;1.00;0.90;;;10.40;99.90;;;;;;5002226;28;20486;-77
2022/01/13 17:52:38;;;;;;;1.70;0.90;;;10.40;99.90;;;;;;5014813;28;20641;-73
2022/01/13 17:55:10;;;;;;;2.80;0.80;;;10.50;99.90;;;;;;5008887;28;20475;-73
2022/01/13 17:57:41;;;;;;;1.60;1.07;;;10.50;99.90;;;;;;5015713;28;20568;-73
2022/01/13 18:00:17;;;;;;;1.30;1.10;;;10.40;99.90;;;;;;5018743;28;20538;-76
2022/01/13 18:18:45;;;;;;;0.52;0.40;;;10.50;99.90;;;;;;5000398;28;20515;-75
2022/01/13 18:21:31;;;;;;;2.30;0.80;;;10.50;99.90;;;;;;5000890;28;20227;-78
2022/01/13 18:33:51;;;;;;;0.80;0.80;;;10.40;99.90;;;;;;5008222;28;20222;-81
2022/01/13 19:09:22;;;;;;;1.15;1.00;;;10.00;99.90;;;;;;4988211;28;20462;-73
2022/01/13 19:11:54;;;;;;;0.80;0.80;;;10.00;99.90;;;;;;4997424;28;20306;-73
2022/01/13 19:14:38;;;;;;;0.90;0.90;;;10.00;99.90;;;;;;5004444;28;20238;-74
2022/01/13 19:31:38;;;;;;;1.90;1.23;;;10.10;99.90;;;;;;5146194;27;20525;-78
2022/01/13 19:34:09;;;;;;;1.10;1.00;;;10.10;99.90;;;;;;5128980;27;20539;-79
2022/01/13 19:36:40;;;;;;;1.93;0.97;;;10.00;99.90;;;;;;5122762;27;20221;-81
2022/01/13 19:39:11;;;;;;;2.30;0.83;;;10.10;99.90;;;;;;5121422;27;20485;-75
2022/01/13 19:41:45;;;;;;;2.15;1.60;;;10.10;99.90;;;;;;5129242;27;20784;-76
2022/01/13 19:44:15;;;;;;;1.77;1.07;;;10.10;99.90;;;;;;5128486;27;20210;-76
2022/01/13 19:46:48;;;;;;;1.35;1.25;;;10.00;99.90;;;;;;5119411;27;20456;-73
2022/01/13 19:49:19;;;;;;;1.40;1.20;;;10.10;99.90;;;;;;5122141;27;20586;-72
2022/01/13 19:51:50;;;;;;;2.22;1.30;;;10.20;99.90;;;;;;5120758;27;20732;-72
2022/01/13 19:54:21;;;;;;;3.13;1.33;;;10.30;99.90;;;;;;5126242;27;20226;-73
2022/01/13 19:56:51;;;;;;;1.53;1.30;;;10.30;99.90;;;;;;5128833;27;20213;-72
2022/01/13 19:59:22;;;;;;;1.90;1.33;;;10.30;99.90;;;;;;5127241;27;20479;-71
2022/01/13 20:01:55;;;;;;;1.93;1.30;;;10.40;99.90;;;;;;5115418;27;20460;-70
2022/01/13 20:04:27;;;;;;;2.25;1.50;;;10.30;99.90;;;;;;5122090;27;20510;-74
2022/01/13 20:06:58;;;;;;;2.07;1.33;;;10.30;99.90;;;;;;5122115;27;20243;-71
2022/01/13 20:09:30;;;;;;;1.07;0.90;;;10.40;99.90;;;;;;5123805;27;20496;-74
2022/01/13 20:12:01;;;;;;;1.20;1.10;;;10.40;99.90;;;;;;5136439;27;20544;-70
2022/01/13 20:14:32;;;;;;;1.63;1.10;;;10.40;99.90;;;;;;5133249;27;20460;-69
2022/01/13 20:17:05;;;;;;;1.73;1.40;;;10.40;99.90;;;;;;5126053;27;20484;-72
2022/01/13 20:19:42;;;;;;;2.40;1.30;;;10.50;99.90;;;;;;5123847;27;20555;-71
2022/01/13 20:22:13;;;;;;;1.33;1.23;;;10.50;99.90;;;;;;5112989;27;20552;-68
2022/01/13 20:24:45;;;;;;;2.93;1.23;;;10.50;99.90;;;;;;5118562;27;20732;-68
2022/01/13 20:27:16;;;;;;;1.60;1.50;;;10.60;99.90;;;;;;5121537;27;20966;-68
2022/01/13 20:29:46;;;;;;;1.63;1.53;;;10.60;99.90;;;;;;5138554;27;20486;-71
2022/01/13 20:32:19;;;;;;;2.03;1.20;;;10.70;99.90;;;;;;5125890;27;20459;-70
2022/01/13 20:34:50;;;;;;;2.40;1.40;;;10.60;99.90;;;;;;5124232;27;20452;-68
2022/01/13 20:37:21;;;;;;;1.67;1.20;;;10.60;99.90;;;;;;5125620;27;20708;-67
2022/01/13 20:39:52;;;;;;;2.57;1.27;;;10.70;99.90;;;;;;5123137;27;20324;-67
2022/01/13 20:42:22;;;;;;;1.27;1.17;;;10.80;99.90;;;;;;5104250;28;20465;-69
2022/01/13 20:44:54;;;;;;;1.93;1.57;;;10.80;99.90;;;;;;5107223;27;20560;-66
2022/01/13 20:47:27;;;;;;;1.60;1.50;;;10.90;99.90;;;;;;5110151;28;20455;-70
2022/01/13 20:49:58;;;;;;;1.97;1.80;;;11.10;99.90;;;;;;5109956;27;20920;-69
2022/01/13 20:52:29;;;;;;;1.70;1.23;;;11.00;99.90;;;;;;5108232;28;20457;-70
2022/01/13 20:55:02;;;;;;;1.27;1.17;;;11.10;99.90;;;;;;5109166;28;20461;-74
2022/01/13 20:57:34;;;;;;;1.60;1.50;;;11.10;99.90;;;;;;5110348;27;20467;-73
2022/01/13 21:00:12;;;;;;;1.40;1.30;;;11.20;99.90;;;;;;5121255;27;20545;-73
2022/01/13 21:03:34;;;;;;;1.83;1.73;;;11.30;99.90;;;;;;5100270;28;20952;-75
2022/01/13 21:06:18;;;;;;;2.17;1.67;;;11.20;99.90;;;;;;5089864;28;20884;-73
2022/01/13 21:08:49;;;;;;;1.80;1.30;;;11.20;99.90;;;;;;5107399;28;20458;-72
2022/01/13 21:11:26;;;;;;;1.63;1.53;;;11.20;99.90;;;;;;5102362;28;20473;-70
2022/01/13 21:13:58;;;;;;;1.90;1.53;;;11.20;99.90;;;;;;5106349;27;20456;-70
2022/01/13 21:16:30;;;;;;;1.97;1.77;;;11.20;99.90;;;;;;5117831;27;20461;-70
2022/01/13 21:19:03;;;;;;;2.03;1.80;;;11.30;99.90;;;;;;5109705;28;20552;-72
2022/01/13 21:21:34;;;;;;;1.87;1.73;;;11.20;99.90;;;;;;5107711;27;20660;-73
2022/01/13 21:24:05;;;;;;;2.10;2.00;;;11.20;99.90;;;;;;5106645;27;20470;-73
2022/01/13 21:26:38;;;;;;;2.33;2.07;;;11.20;99.90;;;;;;5114277;27;20449;-71
2022/01/13 21:29:09;;;;;;;2.10;1.97;;;11.10;99.90;;;;;;5112968;27;20472;-72
2022/01/13 21:31:49;;;;;;;2.40;1.80;;;11.10;99.90;;;;;;5108168;27;20557;-73
2022/01/13 21:51:08;;;;;;;1.50;1.40;;;11.20;99.90;;;;;;5088954;27;20668;-87
2022/01/13 22:19:14;;;;;;;2.97;2.20;;;11.50;99.90;;;;;;5077000;27;20874;-79
2022/01/13 22:21:48;;;;;;;1.93;1.30;;;11.50;99.90;;;;;;5105327;27;20450;-74
2022/01/13 22:24:20;;;;;;;3.33;1.53;;;11.40;99.90;;;;;;5106700;28;21008;-75
2022/01/13 22:30:50;;;;;;;1.87;1.77;;;11.50;99.90;;;;;;5041504;28;20522;-75
2022/01/13 22:37:02;;;;;;;1.87;1.70;;;11.40;99.90;;;;;;5083446;28;20548;-74
2022/01/13 22:39:44;;;;;;;1.80;1.70;;;11.50;99.90;;;;;;5091699;28;20546;-76
2022/01/13 22:42:16;;;;;;;1.70;1.60;;;11.50;99.90;;;;;;5081227;28;20458;-73
2022/01/13 22:44:48;;;;;;;1.70;1.60;;;11.50;99.90;;;;;;5088549;28;20632;-74
2022/01/13 22:50:33;;;;;;;1.90;1.33;;;11.50;99.90;;;;;;5088095;28;20503;-74
2022/01/13 22:53:09;;;;;;;1.50;1.40;;;11.40;99.90;;;;;;5085395;28;20509;-75
2022/01/13 22:56:10;;;;;;;1.80;1.70;;;11.40;99.90;;;;;;5082241;28;20468;-78
2022/01/13 23:02:42;;;;;;;1.60;1.50;;;11.60;99.90;;;;;;5085299;28;20485;-75
2022/01/13 23:05:30;;;;;;;1.50;1.40;;;11.60;99.90;;;;;;5085013;28;20588;-77
2022/01/13 23:08:33;;;;;;;1.83;1.73;;;11.60;99.90;;;;;;5087175;28;20470;-77
2022/01/13 23:14:30;;;;;;;2.70;1.50;;;11.60;99.90;;;;;;5075676;28;20471;-74